Latest Coastal Weather Observations for Swanbourne

IDW60701

Issued at 8:13 pm WST Sunday 22 January 2017 (issued every 10 minutes, with the page automatically refreshed every 10 minutes)

About coastal observations | Map of coastal stations | Coastal observations for WA | Marine services | Other Formats
Station Details ID: 009215 Name: SWANBOURNE Lat: -31.96 Lon: 115.76 Height: 40.96 m
Data from the previous 72 hours. | See also: Recent months at Swanbourne
Date/Time
WST
Temp
°C
Wind Pressure Rain since
9am
mm
Weather Cloud Vis
km
Sea
Height
m
Swell
Dir  Spd
kts
Gust
kts
hPa Trend Height
m
Period
s
Dir
22/08:00pm 18.7 SSW 14 22 - - 0.0 - - - - - - -
22/07:30pm 18.9 SSW 13 21 - - 0.0 - - - - - - -
22/07:00pm 19.2 SSW 15 23 - - 0.0 - - - - - - -
22/06:30pm 19.6 SSW 16 24 - - 0.0 - - - - - - -
22/06:00pm 20.4 SSW 15 22 - - 0.0 - - - - - - -
22/05:30pm 20.6 SW 15 22 - - 0.0 - - - - - - -
22/05:00pm 21.1 SW 15 21 - - 0.0 - - - - - - -
22/04:30pm 21.2 SW 16 23 - - 0.0 - - - - - - -
22/04:00pm 21.4 SW 16 24 - - 0.0 - - - - - - -
22/03:30pm 21.8 SW 14 21 - - 0.0 - - - - - - -
22/03:00pm 22.1 SW 15 23 - - 0.0 - - - - - - -
22/02:30pm 22.3 SSW 16 21 - - 0.0 - - - - - - -
22/02:00pm 21.9 SW 17 23 - - 0.0 - - - - - - -
22/01:30pm 22.0 SW 16 23 - - 0.0 - - - - - - -
22/01:05pm 22.2 SSW 15 25 - - 0.0 - - - - - - -
22/01:00pm 22.6 SSW 16 25 - - 0.0 - - - - - - -
22/12:53pm 21.9 SSW 16 26 - - 0.0 - - - - - - -
22/12:30pm 22.3 SSW 16 25 - - 0.0 - - - - - - -
22/12:00pm 21.8 SSW 18 27 - - 0.0 - - - - - - -
22/11:30am 22.9 SSW 17 25 - - 0.0 - - - - - - -
22/11:00am 22.3 SSW 17 25 - - 0.0 - - - - - - -
22/10:30am 22.1 SSW 16 26 - - 0.0 - - - - - - -
22/10:00am 22.4 SSW 15 23 - - 0.0 - - - - - - -
22/09:30am 21.9 SSW 13 20 - - 0.0 - - - - - - -
22/09:00am 21.6 SSW 14 21 - - 0.0 - - - - - - -
22/08:30am 20.8 S 14 22 - - 0.0 - - - - - - -
22/08:00am 19.9 S 15 24 - - 0.0 - - - - - - -
22/07:30am 19.3 S 13 21 - - 0.0 - - - - - - -
22/07:00am 18.8 S 12 20 - - 0.0 - - - - - - -
22/06:30am 18.2 S 11 18 - - 0.0 - - - - - - -
22/06:00am 17.6 S 9 15 - - 0.0 - - - - - - -
22/05:30am 17.6 S 12 19 - - 0.0 - - - - - - -
22/05:00am 17.6 S 10 16 - - 0.0 - - - - - - -
22/04:30am 17.5 S 8 14 - - 0.0 - - - - - - -
22/04:00am 17.8 SSE 7 12 - - 0.0 - - - - - - -
22/03:30am 18.3 S 9 13 - - 0.0 - - - - - - -
22/03:00am 18.7 S 10 15 - - 0.0 - - - - - - -
22/02:30am 18.8 S 10 16 - - 0.0 - - - - - - -
22/02:00am 19.1 S 10 20 - - 0.0 - - - - - - -
22/01:30am 19.2 S 9 15 - - 0.0 - - - - - - -
22/01:00am 19.4 S 11 17 - - 0.0 - - - - - - -
22/12:30am 19.5 S 11 18 - - 0.0 - - - - - - -
22/12:00am 19.7 S 11 18 - - 0.0 - - - - - - -
 
Date/Time
WST
Temp
°C
Wind Pressure Rain since
9am
mm
Weather Cloud Vis
km
Sea
Height
m
Swell
Dir  Spd
kts
Gust
kts
hPa Trend Height
m
Period
s
Dir
21/11:30pm 19.8 S 11 18 - - 0.0 - - - - - - -
21/11:00pm 20.0 S 12 19 - - 0.0 - - - - - - -
21/10:30pm 20.1 S 12 20 - - 0.0 - - - - - - -
21/10:00pm 20.2 S 12 17 - - 0.0 - - - - - - -
21/09:30pm 20.2 SSW 12 19 - - 0.0 - - - - - - -
21/09:00pm 20.2 SSW 11 17 - - 0.0 - - - - - - -
21/08:30pm 20.1 SSW 13 18 - - 0.0 - - - - - - -
21/08:00pm 20.2 SSW 12 17 - - 0.0 - - - - - - -
21/07:30pm 20.3 SSW 14 21 - - 0.0 - - - - - - -
21/07:00pm 20.8 SSW 13 20 - - 0.0 - - - - - - -
21/06:30pm 21.4 SSW 14 20 - - 0.0 - - - - - - -
21/06:00pm 21.7 SSW 16 21 - - 0.0 - - - - - - -
21/05:30pm 22.4 SSW 14 22 - - 0.0 - - - - - - -
21/05:00pm 22.9 SSW 14 22 - - 0.0 - - - - - - -
21/04:30pm 23.0 SSW 16 23 - - 0.0 - - - - - - -
21/04:00pm 23.4 SSW 14 21 - - 0.0 - - - - - - -
21/03:30pm 24.2 SSW 15 23 - - 0.0 - - - - - - -
21/03:00pm 24.4 SSW 13 19 - - 0.0 - - - - - - -
21/02:30pm 24.4 SSW 13 21 - - 0.0 - - - - - - -
21/02:00pm 24.8 SSW 11 17 - - 0.0 - - - - - - -
21/01:30pm 24.0 SSW 12 20 - - 0.0 - - - - - - -
21/01:00pm 25.2 SSW 11 16 - - 0.0 - - - - - - -
21/12:30pm 24.1 SSW 12 17 - - 0.0 - - - - - - -
21/12:00pm 25.3 SSW 10 15 - - 0.0 - - - - - - -
21/11:30am 25.6 SW 10 13 - - 0.0 - - - - - - -
21/11:00am 26.0 SW 9 14 - - 0.0 - - - - - - -
21/10:30am 25.1 SSW 9 14 - - 0.0 - - - - - - -
21/10:00am 25.2 SSW 7 11 - - 0.0 - - - - - - -
21/09:30am 24.3 SSW 8 12 - - 0.0 - - - - - - -
21/09:00am 23.7 S 7 10 - - 0.0 - - - - - - -
21/08:30am 23.0 S 7 10 - - 0.0 - - - - - - -
21/08:00am 22.1 S 6 8 - - 0.0 - - - - - - -
21/07:30am 21.3 SE 3 5 - - 0.0 - - - - - - -
21/07:00am 19.7 SSE 4 7 - - 0.0 - - - - - - -
21/06:30am 18.3 SE 5 7 - - 0.0 - - - - - - -
21/06:00am 16.8 SSE 5 6 - - 0.0 - - - - - - -
21/05:30am 16.9 SSW 4 5 - - 0.0 - - - - - - -
21/05:00am 16.8 SW 2 3 - - 0.0 - - - - - - -
21/04:30am 16.5 E 6 8 - - 0.0 - - - - - - -
21/04:00am 16.8 E 7 9 - - 0.0 - - - - - - -
21/03:30am 17.2 ESE 6 9 - - 0.0 - - - - - - -
21/03:00am 17.5 SE 4 7 - - 0.0 - - - - - - -
21/02:30am 17.7 S 5 7 - - 0.0 - - - - - - -
21/02:00am 17.9 S 5 7 - - 0.0 - - - - - - -
21/01:30am 18.4 SSE 3 5 - - 0.0 - - - - - - -
21/01:00am 18.5 SSE 5 6 - - 0.0 - - - - - - -
21/12:30am 18.4 SSE 4 5 - - 0.0 - - - - - - -
21/12:00am 18.6 SSE 5 6 - - 0.0 - - - - - - -
 
Date/Time
WST
Temp
°C
Wind Pressure Rain since
9am
mm
Weather Cloud Vis
km
Sea
Height
m
Swell
Dir  Spd
kts
Gust
kts
hPa Trend Height
m
Period
s
Dir
20/11:30pm 18.8 SSE 4 6 - - 0.0 - - - - - - -
20/11:00pm 19.1 S 6 8 - - 0.0 - - - - - - -
20/10:30pm 19.2 S 6 10 - - 0.0 - - - - - - -
20/10:00pm 19.2 S 7 12 - - 0.0 - - - - - - -
20/09:30pm 19.4 S 8 12 - - 0.0 - - - - - - -
20/09:00pm 19.4 S 9 13 - - 0.0 - - - - - - -
20/08:30pm 19.3 S 9 14 - - 0.0 - - - - - - -
20/08:00pm 19.5 S 11 16 - - 0.0 - - - - - - -
20/07:30pm 19.6 S 12 18 - - 0.0 - - - - - - -
20/07:00pm 20.0 S 11 19 - - 0.0 - - - - - - -
20/06:30pm 20.5 SSW 13 19 - - 0.0 - - - - - - -
20/06:00pm 21.1 SSW 13 21 - - 0.0 - - - - - - -
20/05:30pm 21.1 SSW 14 20 - - 0.0 - - - - - - -
20/05:00pm 22.0 SSW 12 19 - - 0.0 - - - - - - -
20/04:30pm 22.2 SSW 10 16 - - 0.0 - - - - - - -
20/04:00pm 22.4 SSW 11 16 - - 0.0 - - - - - - -
20/03:30pm 22.4 SSW 12 17 - - 0.0 - - - - - - -
20/03:00pm 21.8 SSW 13 19 - - 0.0 - - - - - - -
20/02:30pm 21.6 SSW 14 19 - - 0.0 - - - - - - -
20/02:00pm 22.9 SSW 14 20 - - 0.0 - - - - - - -
20/01:30pm 22.1 SW 14 19 - - 0.0 - - - - - - -
20/01:00pm 22.3 SSW 13 18 - - 0.0 - - - - - - -
20/12:30pm 22.5 SW 13 18 - - 0.0 - - - - - - -
20/12:00pm 22.7 SW 11 15 - - 0.0 - - - - - - -
20/11:30am 22.2 SW 10 15 - - 0.0 - - - - - - -
20/11:00am 21.7 SW 10 13 - - 0.0 - - - - - - -
20/10:30am 22.6 W 7 10 - - 0.0 - - - - - - -
20/10:00am 22.9 S 3 5 - - 0.0 - - - - - - -
20/09:30am 21.7 SE 5 9 - - 0.0 - - - - - - -
20/09:00am 22.1 E 5 8 - - 0.0 - - - - - - -
20/08:30am 20.1 SE 6 8 - - 0.0 - - - - - - -
20/08:00am 19.3 SE 5 8 - - 0.0 - - - - - - -
20/07:30am 18.4 ESE 5 8 - - 0.0 - - - - - - -
20/07:00am 18.2 ESE 4 7 - - 0.0 - - - - - - -
20/06:30am 16.9 ESE 4 5 - - 0.0 - - - - - - -
20/06:00am 15.0 ESE 5 7 - - 0.0 - - - - - - -
20/05:30am 13.7 ESE 4 5 - - 0.0 - - - - - - -
20/05:00am 14.4 SE 3 4 - - 0.0 - - - - - - -
20/04:30am 14.5 SSE 5 6 - - 0.0 - - - - - - -
20/04:00am 15.4 SE 4 8 - - 0.0 - - - - - - -
20/03:30am 16.2 SE 6 8 - - 0.0 - - - - - - -
20/03:00am 16.4 SSE 8 12 - - 0.0 - - - - - - -
20/02:30am 16.0 SSE 5 8 - - 0.0 - - - - - - -
20/02:00am 16.1 SSE 6 10 - - 0.0 - - - - - - -
20/01:30am 16.4 SSE 6 11 - - 0.0 - - - - - - -
20/01:00am 16.9 SSE 8 11 - - 0.0 - - - - - - -
20/12:30am 17.2 SSE 9 14 - - 0.0 - - - - - - -
20/12:00am 17.9 SSE 8 13 - - 0.0 - - - - - - -
 
Date/Time
WST
Temp
°C
Wind Pressure Rain since
9am
mm
Weather Cloud Vis
km
Sea
Height
m
Swell
Dir  Spd
kts
Gust
kts
hPa Trend Height
m
Period
s
Dir
19/11:30pm 18.5 SSE 8 13 - - 0.0 - - - - - - -
19/11:00pm 19.0 S 9 14 - - 0.0 - - - - - - -
19/10:30pm 19.3 S 9 16 - - 0.0 - - - - - - -
19/10:00pm 19.1 S 12 17 - - 0.0 - - - - - - -
19/09:30pm 19.1 S 12 20 - - 0.0 - - - - - - -
19/09:00pm 19.0 S 13 20 - - 0.0 - - - - - - -
19/08:30pm 19.0 SSW 13 21 - - 0.0 - - - - - - -

Other Formats:

Comma delimited format used in spreadsheet applications
http://www.bom.gov.au/fwo/IDW60701/IDW60701.94614.axf

JavaScript Object Notation format (JSON) in row-major order
http://www.bom.gov.au/fwo/IDW60701/IDW60701.94614.json